Terminal Aerodrome Forecast
Issued by NWS

Home | Current Version | Previous Version | Text Only | Print | Product List | Glossary On
Versions: 1 2 3 4 5 6 7 8 9 10 11 12
000
FTUS45 KSLC 260532
TAFSGU
TAF
KSGU 260532Z 2606/2706 13008KT P6SM FEW050 SCT090
     FM262000 24010G17KT P6SM FEW050 SCT090
     FM270300 VRB04KT P6SM SCT090
      AMD LTD TO CLD VIS AND WIND=

USA.gov is the U.S. government's official web portal to all federal, state and local government web resources and services.